sensor_id;sensor_type;location;lat;lon;timestamp;P1;durP1;ratioP1;P2;durP2;ratioP2
51838;SDS011;37886;53.174;6.368;2024-03-23T00:55:39;51.63;;;4.40;;
51838;SDS011;37886;53.174;6.368;2024-03-23T00:58:05;41.08;;;4.45;;
51838;SDS011;37886;53.174;6.368;2024-03-23T01:00:31;46.45;;;4.50;;
51838;SDS011;37886;53.174;6.368;2024-03-23T01:02:57;38.92;;;4.68;;
51838;SDS011;37886;53.174;6.368;2024-03-23T01:05:22;45.72;;;4.63;;
51838;SDS011;37886;53.174;6.368;2024-03-23T01:07:48;42.97;;;4.55;;
51838;SDS011;37886;53.174;6.368;2024-03-23T01:10:13;42.78;;;4.47;;
51838;SDS011;37886;53.174;6.368;2024-03-23T01:12:39;38.70;;;4.20;;
51838;SDS011;37886;53.174;6.368;2024-03-23T01:15:05;48.58;;;4.40;;
51838;SDS011;37886;53.174;6.368;2024-03-23T01:17:31;32.38;;;4.00;;
51838;SDS011;37886;53.174;6.368;2024-03-23T01:19:57;38.80;;;3.60;;
51838;SDS011;37886;53.174;6.368;2024-03-23T01:22:22;59.17;;;4.63;;
51838;SDS011;37886;53.174;6.368;2024-03-23T01:24:48;35.05;;;3.63;;
51838;SDS011;37886;53.174;6.368;2024-03-23T01:27:14;39.40;;;4.20;;
51838;SDS011;37886;53.174;6.368;2024-03-23T01:29:40;31.83;;;3.75;;
51838;SDS011;37886;53.174;6.368;2024-03-23T01:32:06;47.97;;;4.22;;
51838;SDS011;37886;53.174;6.368;2024-03-23T01:34:32;36.58;;;3.95;;
51838;SDS011;37886;53.174;6.368;2024-03-23T01:36:58;46.40;;;4.38;;
51838;SDS011;37886;53.174;6.368;2024-03-23T01:39:24;47.33;;;4.95;;
51838;SDS011;37886;53.174;6.368;2024-03-23T01:41:49;43.58;;;3.80;;
51838;SDS011;37886;53.174;6.368;2024-03-23T01:44:16;42.63;;;4.80;;
51838;SDS011;37886;53.174;6.368;2024-03-23T01:46:42;48.72;;;4.07;;
51838;SDS011;37886;53.174;6.368;2024-03-23T01:49:08;35.92;;;4.20;;
51838;SDS011;37886;53.174;6.368;2024-03-23T01:51:35;59.88;;;4.50;;
51838;SDS011;37886;53.174;6.368;2024-03-23T01:54:02;42.90;;;4.40;;
51838;SDS011;37886;53.174;6.368;2024-03-23T01:56:29;35.00;;;3.70;;
51838;SDS011;37886;53.174;6.368;2024-03-23T01:58:55;39.92;;;4.05;;
51838;SDS011;37886;53.174;6.368;2024-03-23T02:01:21;38.47;;;3.97;;
51838;SDS011;37886;53.174;6.368;2024-03-23T02:03:46;45.65;;;4.55;;
51838;SDS011;37886;53.174;6.368;2024-03-23T02:06:12;39.00;;;4.20;;
51838;SDS011;37886;53.174;6.368;2024-03-23T02:08:38;54.63;;;4.35;;
51838;SDS011;37886;53.174;6.368;2024-03-23T02:11:04;40.28;;;4.30;;
51838;SDS011;37886;53.174;6.368;2024-03-23T02:13:30;40.75;;;4.47;;
51838;SDS011;37886;53.174;6.368;2024-03-23T02:15:57;38.63;;;3.70;;
51838;SDS011;37886;53.174;6.368;2024-03-23T02:18:22;40.38;;;4.07;;
51838;SDS011;37886;53.174;6.368;2024-03-23T02:20:48;31.05;;;3.70;;
51838;SDS011;37886;53.174;6.368;2024-03-23T02:23:14;45.30;;;4.63;;
51838;SDS011;37886;53.174;6.368;2024-03-23T02:25:41;38.33;;;4.13;;
51838;SDS011;37886;53.174;6.368;2024-03-23T02:28:07;40.45;;;3.97;;
51838;SDS011;37886;53.174;6.368;2024-03-23T02:30:33;39.25;;;3.47;;
51838;SDS011;37886;53.174;6.368;2024-03-23T02:32:59;39.45;;;3.72;;
51838;SDS011;37886;53.174;6.368;2024-03-23T02:35:24;36.30;;;3.38;;
51838;SDS011;37886;53.174;6.368;2024-03-23T02:37:50;43.00;;;3.78;;
51838;SDS011;37886;53.174;6.368;2024-03-23T02:40:16;38.00;;;3.13;;
51838;SDS011;37886;53.174;6.368;2024-03-23T02:42:42;27.35;;;3.10;;
51838;SDS011;37886;53.174;6.368;2024-03-23T02:45:08;35.53;;;3.58;;
51838;SDS011;37886;53.174;6.368;2024-03-23T02:47:34;32.10;;;3.33;;
51838;SDS011;37886;53.174;6.368;2024-03-23T02:49:59;39.25;;;3.20;;
51838;SDS011;37886;53.174;6.368;2024-03-23T02:52:25;36.22;;;3.30;;
51838;SDS011;37886;53.174;6.368;2024-03-23T02:54:51;38.53;;;3.83;;
51838;SDS011;37886;53.174;6.368;2024-03-23T02:57:16;38.35;;;3.20;;
51838;SDS011;37886;53.174;6.368;2024-03-23T02:59:42;34.38;;;3.50;;
51838;SDS011;37886;53.174;6.368;2024-03-23T03:02:08;31.75;;;4.07;;
51838;SDS011;37886;53.174;6.368;2024-03-23T03:04:33;30.42;;;3.22;;
51838;SDS011;37886;53.174;6.368;2024-03-23T03:06:59;35.28;;;2.83;;
51838;SDS011;37886;53.174;6.368;2024-03-23T03:09:25;32.47;;;2.90;;
51838;SDS011;37886;53.174;6.368;2024-03-23T03:11:51;37.50;;;3.50;;
51838;SDS011;37886;53.174;6.368;2024-03-23T03:14:16;31.55;;;3.25;;
51838;SDS011;37886;53.174;6.368;2024-03-23T03:16:42;35.95;;;3.83;;
51838;SDS011;37886;53.174;6.368;2024-03-23T03:19:08;34.95;;;3.17;;
51838;SDS011;37886;53.174;6.368;2024-03-23T03:21:35;38.22;;;3.22;;
51838;SDS011;37886;53.174;6.368;2024-03-23T03:24:01;35.90;;;3.03;;
51838;SDS011;37886;53.174;6.368;2024-03-23T03:26:27;34.65;;;3.00;;
51838;SDS011;37886;53.174;6.368;2024-03-23T03:28:52;35.67;;;3.75;;
51838;SDS011;37886;53.174;6.368;2024-03-23T03:31:18;51.03;;;3.60;;
51838;SDS011;37886;53.174;6.368;2024-03-23T03:33:44;32.65;;;3.13;;
51838;SDS011;37886;53.174;6.368;2024-03-23T03:36:10;19.42;;;2.90;;
51838;SDS011;37886;53.174;6.368;2024-03-23T03:38:36;31.35;;;2.95;;
51838;SDS011;37886;53.174;6.368;2024-03-23T03:41:02;34.42;;;2.90;;
51838;SDS011;37886;53.174;6.368;2024-03-23T03:43:28;29.90;;;2.80;;
51838;SDS011;37886;53.174;6.368;2024-03-23T03:45:54;20.65;;;2.42;;
51838;SDS011;37886;53.174;6.368;2024-03-23T03:48:20;25.60;;;2.63;;
51838;SDS011;37886;53.174;6.368;2024-03-23T03:50:45;32.08;;;2.47;;
51838;SDS011;37886;53.174;6.368;2024-03-23T03:53:11;30.08;;;3.03;;
51838;SDS011;37886;53.174;6.368;2024-03-23T03:55:37;26.50;;;3.15;;
51838;SDS011;37886;53.174;6.368;2024-03-23T03:58:02;32.75;;;2.72;;
51838;SDS011;37886;53.174;6.368;2024-03-23T04:00:29;33.88;;;2.83;;
51838;SDS011;37886;53.174;6.368;2024-03-23T04:02:55;37.28;;;3.17;;
51838;SDS011;37886;53.174;6.368;2024-03-23T04:05:21;32.80;;;2.60;;
51838;SDS011;37886;53.174;6.368;2024-03-23T04:07:47;36.53;;;2.92;;
51838;SDS011;37886;53.174;6.368;2024-03-23T04:10:13;24.10;;;2.40;;
51838;SDS011;37886;53.174;6.368;2024-03-23T04:12:40;28.70;;;2.75;;
51838;SDS011;37886;53.174;6.368;2024-03-23T04:15:06;25.10;;;2.65;;
51838;SDS011;37886;53.174;6.368;2024-03-23T04:17:32;28.13;;;2.50;;
51838;SDS011;37886;53.174;6.368;2024-03-23T04:19:59;30.25;;;3.00;;
51838;SDS011;37886;53.174;6.368;2024-03-23T04:22:26;27.20;;;2.70;;
51838;SDS011;37886;53.174;6.368;2024-03-23T04:24:55;27.00;;;2.75;;
51838;SDS011;37886;53.174;6.368;2024-03-23T04:27:22;36.80;;;2.95;;
51838;SDS011;37886;53.174;6.368;2024-03-23T04:29:51;31.98;;;2.80;;
51838;SDS011;37886;53.174;6.368;2024-03-23T04:32:20;48.90;;;2.90;;
51838;SDS011;37886;53.174;6.368;2024-03-23T04:34:46;31.50;;;2.55;;
51838;SDS011;37886;53.174;6.368;2024-03-23T04:37:12;25.67;;;2.30;;
51838;SDS011;37886;53.174;6.368;2024-03-23T04:39:38;33.47;;;2.85;;
51838;SDS011;37886;53.174;6.368;2024-03-23T04:42:04;32.38;;;3.03;;
51838;SDS011;37886;53.174;6.368;2024-03-23T04:44:30;31.30;;;2.08;;
51838;SDS011;37886;53.174;6.368;2024-03-23T04:46:57;24.85;;;2.30;;
51838;SDS011;37886;53.174;6.368;2024-03-23T04:49:23;26.70;;;2.47;;
51838;SDS011;37886;53.174;6.368;2024-03-23T04:51:48;31.73;;;2.70;;
51838;SDS011;37886;53.174;6.368;2024-03-23T04:54:14;27.42;;;2.47;;
51838;SDS011;37886;53.174;6.368;2024-03-23T04:56:40;26.40;;;2.60;;
51838;SDS011;37886;53.174;6.368;2024-03-23T04:59:06;28.38;;;2.58;;
51838;SDS011;37886;53.174;6.368;2024-03-23T05:01:32;20.48;;;1.85;;
51838;SDS011;37886;53.174;6.368;2024-03-23T05:03:58;28.23;;;2.20;;
51838;SDS011;37886;53.174;6.368;2024-03-23T05:06:24;27.58;;;2.33;;
51838;SDS011;37886;53.174;6.368;2024-03-23T05:08:50;25.40;;;2.10;;
51838;SDS011;37886;53.174;6.368;2024-03-23T05:11:19;19.15;;;3.00;;
51838;SDS011;37886;53.174;6.368;2024-03-23T05:13:45;23.50;;;2.22;;
51838;SDS011;37886;53.174;6.368;2024-03-23T05:16:11;30.63;;;2.72;;
51838;SDS011;37886;53.174;6.368;2024-03-23T05:18:37;30.27;;;2.70;;
51838;SDS011;37886;53.174;6.368;2024-03-23T05:21:03;29.90;;;2.30;;
51838;SDS011;37886;53.174;6.368;2024-03-23T05:23:29;20.45;;;2.17;;
51838;SDS011;37886;53.174;6.368;2024-03-23T05:25:55;23.83;;;2.60;;
51838;SDS011;37886;53.174;6.368;2024-03-23T05:28:24;26.50;;;2.42;;
51838;SDS011;37886;53.174;6.368;2024-03-23T05:30:53;32.80;;;2.40;;
51838;SDS011;37886;53.174;6.368;2024-03-23T05:33:19;21.58;;;1.92;;
51838;SDS011;37886;53.174;6.368;2024-03-23T05:35:45;23.60;;;2.10;;
51838;SDS011;37886;53.174;6.368;2024-03-23T05:38:13;29.92;;;2.20;;
51838;SDS011;37886;53.174;6.368;2024-03-23T05:40:39;28.33;;;2.60;;
51838;SDS011;37886;53.174;6.368;2024-03-23T05:43:08;27.83;;;2.40;;
51838;SDS011;37886;53.174;6.368;2024-03-23T05:45:34;23.95;;;2.13;;
51838;SDS011;37886;53.174;6.368;2024-03-23T05:48:00;22.98;;;2.10;;
51838;SDS011;37886;53.174;6.368;2024-03-23T05:50:26;18.45;;;2.15;;
51838;SDS011;37886;53.174;6.368;2024-03-23T05:52:51;24.40;;;2.00;;
51838;SDS011;37886;53.174;6.368;2024-03-23T05:55:17;25.27;;;2.65;;
51838;SDS011;37886;53.174;6.368;2024-03-23T05:57:43;23.15;;;2.00;;
51838;SDS011;37886;53.174;6.368;2024-03-23T06:00:09;17.27;;;1.85;;
51838;SDS011;37886;53.174;6.368;2024-03-23T06:02:41;19.67;;;1.88;;
51838;SDS011;37886;53.174;6.368;2024-03-23T06:05:10;21.33;;;1.70;;
51838;SDS011;37886;53.174;6.368;2024-03-23T06:07:39;12.02;;;1.55;;
51838;SDS011;37886;53.174;6.368;2024-03-23T06:10:05;14.45;;;1.58;;
51838;SDS011;37886;53.174;6.368;2024-03-23T06:12:31;17.58;;;1.50;;
51838;SDS011;37886;53.174;6.368;2024-03-23T06:14:57;15.45;;;1.52;;
51838;SDS011;37886;53.174;6.368;2024-03-23T06:17:23;17.38;;;1.30;;
51838;SDS011;37886;53.174;6.368;2024-03-23T06:19:49;9.75;;;1.50;;
51838;SDS011;37886;53.174;6.368;2024-03-23T06:22:15;21.10;;;1.50;;
51838;SDS011;37886;53.174;6.368;2024-03-23T06:24:40;18.45;;;1.75;;
51838;SDS011;37886;53.174;6.368;2024-03-23T06:27:06;19.42;;;1.73;;
51838;SDS011;37886;53.174;6.368;2024-03-23T06:29:32;20.85;;;1.80;;
51838;SDS011;37886;53.174;6.368;2024-03-23T06:31:58;13.65;;;1.45;;
51838;SDS011;37886;53.174;6.368;2024-03-23T06:34:23;15.73;;;1.70;;
51838;SDS011;37886;53.174;6.368;2024-03-23T06:36:49;15.93;;;1.90;;
51838;SDS011;37886;53.174;6.368;2024-03-23T06:39:15;20.73;;;1.90;;
51838;SDS011;37886;53.174;6.368;2024-03-23T06:41:42;15.38;;;1.48;;
51838;SDS011;37886;53.174;6.368;2024-03-23T06:44:08;15.95;;;1.60;;
51838;SDS011;37886;53.174;6.368;2024-03-23T06:46:33;26.38;;;1.92;;
51838;SDS011;37886;53.174;6.368;2024-03-23T06:48:59;20.08;;;1.60;;
51838;SDS011;37886;53.174;6.368;2024-03-23T06:51:25;15.55;;;1.35;;
51838;SDS011;37886;53.174;6.368;2024-03-23T06:53:50;12.23;;;1.58;;
51838;SDS011;37886;53.174;6.368;2024-03-23T06:56:16;14.00;;;1.50;;
51838;SDS011;37886;53.174;6.368;2024-03-23T06:58:41;15.90;;;1.23;;
51838;SDS011;37886;53.174;6.368;2024-03-23T07:01:07;14.20;;;1.15;;
51838;SDS011;37886;53.174;6.368;2024-03-23T07:03:33;17.92;;;1.13;;
51838;SDS011;37886;53.174;6.368;2024-03-23T07:05:58;10.15;;;0.95;;
51838;SDS011;37886;53.174;6.368;2024-03-23T07:08:24;11.65;;;0.93;;
51838;SDS011;37886;53.174;6.368;2024-03-23T07:10:50;11.90;;;0.95;;
51838;SDS011;37886;53.174;6.368;2024-03-23T07:13:15;8.35;;;0.80;;
51838;SDS011;37886;53.174;6.368;2024-03-23T07:15:42;8.80;;;0.75;;
51838;SDS011;37886;53.174;6.368;2024-03-23T07:18:08;7.75;;;1.08;;
51838;SDS011;37886;53.174;6.368;2024-03-23T07:20:34;5.30;;;0.60;;
51838;SDS011;37886;53.174;6.368;2024-03-23T07:22:59;5.65;;;0.45;;
51838;SDS011;37886;53.174;6.368;2024-03-23T07:25:25;4.82;;;0.40;;
51838;SDS011;37886;53.174;6.368;2024-03-23T07:27:55;5.68;;;0.50;;
51838;SDS011;37886;53.174;6.368;2024-03-23T07:30:20;7.20;;;0.68;;
51838;SDS011;37886;53.174;6.368;2024-03-23T07:32:46;5.57;;;0.73;;
51838;SDS011;37886;53.174;6.368;2024-03-23T07:35:12;5.20;;;0.43;;
51838;SDS011;37886;53.174;6.368;2024-03-23T07:37:38;7.85;;;0.57;;
51838;SDS011;37886;53.174;6.368;2024-03-23T07:40:04;11.82;;;0.90;;
51838;SDS011;37886;53.174;6.368;2024-03-23T07:42:30;10.02;;;0.70;;
51838;SDS011;37886;53.174;6.368;2024-03-23T07:44:56;3.53;;;0.55;;
51838;SDS011;37886;53.174;6.368;2024-03-23T07:47:22;8.77;;;1.10;;
51838;SDS011;37886;53.174;6.368;2024-03-23T07:49:48;8.98;;;0.85;;
51838;SDS011;37886;53.174;6.368;2024-03-23T07:52:13;12.45;;;1.10;;
51838;SDS011;37886;53.174;6.368;2024-03-23T07:54:39;9.20;;;0.80;;
51838;SDS011;37886;53.174;6.368;2024-03-23T07:57:05;18.23;;;1.17;;
51838;SDS011;37886;53.174;6.368;2024-03-23T07:59:31;12.98;;;1.15;;
51838;SDS011;37886;53.174;6.368;2024-03-23T08:01:59;12.95;;;1.30;;
51838;SDS011;37886;53.174;6.368;2024-03-23T08:04:25;10.43;;;1.05;;
51838;SDS011;37886;53.174;6.368;2024-03-23T08:06:52;12.60;;;0.98;;
51838;SDS011;37886;53.174;6.368;2024-03-23T08:09:17;16.85;;;1.45;;
51838;SDS011;37886;53.174;6.368;2024-03-23T08:11:43;12.18;;;1.50;;
51838;SDS011;37886;53.174;6.368;2024-03-23T08:14:11;16.90;;;1.02;;
51838;SDS011;37886;53.174;6.368;2024-03-23T08:16:36;9.32;;;0.90;;
51838;SDS011;37886;53.174;6.368;2024-03-23T08:19:02;9.05;;;1.20;;
51838;SDS011;37886;53.174;6.368;2024-03-23T08:21:29;14.45;;;1.58;;
51838;SDS011;37886;53.174;6.368;2024-03-23T08:23:54;17.15;;;1.60;;
51838;SDS011;37886;53.174;6.368;2024-03-23T08:26:20;15.15;;;1.65;;
51838;SDS011;37886;53.174;6.368;2024-03-23T08:28:46;17.25;;;1.80;;
51838;SDS011;37886;53.174;6.368;2024-03-23T08:31:13;16.92;;;1.83;;
51838;SDS011;37886;53.174;6.368;2024-03-23T08:33:39;17.20;;;2.00;;
51838;SDS011;37886;53.174;6.368;2024-03-23T08:36:08;16.13;;;2.13;;
51838;SDS011;37886;53.174;6.368;2024-03-23T08:38:37;15.82;;;1.70;;
51838;SDS011;37886;53.174;6.368;2024-03-23T08:41:04;18.95;;;1.52;;
51838;SDS011;37886;53.174;6.368;2024-03-23T08:43:37;10.55;;;1.25;;
51838;SDS011;37886;53.174;6.368;2024-03-23T08:46:05;14.05;;;1.40;;
51838;SDS011;37886;53.174;6.368;2024-03-23T08:48:35;15.95;;;1.25;;
51838;SDS011;37886;53.174;6.368;2024-03-23T08:51:02;16.67;;;1.30;;
51838;SDS011;37886;53.174;6.368;2024-03-23T08:53:28;22.13;;;1.80;;
51838;SDS011;37886;53.174;6.368;2024-03-23T08:55:55;12.55;;;1.27;;
51838;SDS011;37886;53.174;6.368;2024-03-23T08:58:23;15.48;;;1.60;;
51838;SDS011;37886;53.174;6.368;2024-03-23T09:00:49;18.90;;;1.65;;
51838;SDS011;37886;53.174;6.368;2024-03-23T09:03:16;19.17;;;2.20;;
51838;SDS011;37886;53.174;6.368;2024-03-23T09:05:41;15.40;;;1.63;;
51838;SDS011;37886;53.174;6.368;2024-03-23T09:08:07;11.27;;;1.30;;
51838;SDS011;37886;53.174;6.368;2024-03-23T09:10:39;10.68;;;1.23;;
51838;SDS011;37886;53.174;6.368;2024-03-23T09:13:05;13.43;;;1.58;;
51838;SDS011;37886;53.174;6.368;2024-03-23T09:15:35;22.83;;;1.85;;
51838;SDS011;37886;53.174;6.368;2024-03-23T09:18:02;15.93;;;1.38;;
51838;SDS011;37886;53.174;6.368;2024-03-23T09:20:28;20.75;;;1.60;;
51838;SDS011;37886;53.174;6.368;2024-03-23T09:22:54;14.25;;;1.45;;
51838;SDS011;37886;53.174;6.368;2024-03-23T09:25:20;11.35;;;1.50;;
51838;SDS011;37886;53.174;6.368;2024-03-23T09:27:46;12.68;;;1.38;;
51838;SDS011;37886;53.174;6.368;2024-03-23T09:30:12;10.93;;;1.20;;
51838;SDS011;37886;53.174;6.368;2024-03-23T09:32:39;12.23;;;1.38;;
51838;SDS011;37886;53.174;6.368;2024-03-23T09:35:08;11.60;;;1.30;;
51838;SDS011;37886;53.174;6.368;2024-03-23T09:37:34;12.55;;;1.30;;
51838;SDS011;37886;53.174;6.368;2024-03-23T09:39:59;10.02;;;1.08;;
51838;SDS011;37886;53.174;6.368;2024-03-23T09:42:25;15.27;;;1.92;;
51838;SDS011;37886;53.174;6.368;2024-03-23T09:44:51;9.40;;;0.88;;
51838;SDS011;37886;53.174;6.368;2024-03-23T09:47:17;6.20;;;0.82;;
51838;SDS011;37886;53.174;6.368;2024-03-23T09:49:43;2.83;;;0.50;;
51838;SDS011;37886;53.174;6.368;2024-03-23T09:52:09;2.53;;;0.20;;
51838;SDS011;37886;53.174;6.368;2024-03-23T09:54:35;5.38;;;0.40;;
51838;SDS011;37886;53.174;6.368;2024-03-23T09:57:01;11.35;;;0.70;;
51838;SDS011;37886;53.174;6.368;2024-03-23T09:59:27;10.75;;;0.80;;
51838;SDS011;37886;53.174;6.368;2024-03-23T10:01:54;8.02;;;0.70;;
51838;SDS011;37886;53.174;6.368;2024-03-23T10:04:39;11.98;;;0.73;;
51838;SDS011;37886;53.174;6.368;2024-03-23T10:07:17;14.82;;;1.77;;
51838;SDS011;37886;53.174;6.368;2024-03-23T10:09:44;18.75;;;1.50;;
51838;SDS011;37886;53.174;6.368;2024-03-23T10:12:12;15.43;;;1.63;;
51838;SDS011;37886;53.174;6.368;2024-03-23T10:14:39;16.08;;;2.10;;
51838;SDS011;37886;53.174;6.368;2024-03-23T10:19:49;7.28;;;1.27;;
51838;SDS011;37886;53.174;6.368;2024-03-23T10:22:20;8.77;;;1.27;;
51838;SDS011;37886;53.174;6.368;2024-03-23T10:24:48;9.82;;;1.70;;
51838;SDS011;37886;53.174;6.368;2024-03-23T10:27:21;14.80;;;1.35;;
51838;SDS011;37886;53.174;6.368;2024-03-23T10:29:49;10.82;;;1.00;;
51838;SDS011;37886;53.174;6.368;2024-03-23T10:32:16;13.02;;;1.15;;
51838;SDS011;37886;53.174;6.368;2024-03-23T10:34:43;8.43;;;0.93;;
51838;SDS011;37886;53.174;6.368;2024-03-23T10:37:09;9.10;;;1.30;;
51838;SDS011;37886;53.174;6.368;2024-03-23T10:39:36;13.02;;;1.15;;
51838;SDS011;37886;53.174;6.368;2024-03-23T10:42:03;11.02;;;0.93;;
51838;SDS011;37886;53.174;6.368;2024-03-23T10:47:00;16.05;;;1.40;;
51838;SDS011;37886;53.174;6.368;2024-03-23T10:49:30;8.75;;;1.20;;
51838;SDS011;37886;53.174;6.368;2024-03-23T10:52:01;20.20;;;1.48;;
51838;SDS011;37886;53.174;6.368;2024-03-23T10:54:31;19.20;;;1.48;;
51838;SDS011;37886;53.174;6.368;2024-03-23T10:57:11;21.45;;;1.40;;
51838;SDS011;37886;53.174;6.368;2024-03-23T10:59:42;6.82;;;0.70;;
51838;SDS011;37886;53.174;6.368;2024-03-23T11:02:17;15.63;;;1.50;;
51838;SDS011;37886;53.174;6.368;2024-03-23T11:04:44;10.30;;;1.10;;
51838;SDS011;37886;53.174;6.368;2024-03-23T11:07:32;11.60;;;1.45;;
51838;SDS011;37886;53.174;6.368;2024-03-23T11:09:58;19.33;;;1.70;;
51838;SDS011;37886;53.174;6.368;2024-03-23T11:12:28;14.80;;;1.52;;
51838;SDS011;37886;53.174;6.368;2024-03-23T11:15:01;13.32;;;1.33;;
51838;SDS011;37886;53.174;6.368;2024-03-23T11:17:27;11.90;;;1.42;;
51838;SDS011;37886;53.174;6.368;2024-03-23T11:20:00;11.70;;;1.60;;
51838;SDS011;37886;53.174;6.368;2024-03-23T11:27:48;8.13;;;1.13;;
51838;SDS011;37886;53.174;6.368;2024-03-23T11:30:22;17.77;;;1.60;;
51838;SDS011;37886;53.174;6.368;2024-03-23T11:32:50;20.75;;;1.83;;
51838;SDS011;37886;53.174;6.368;2024-03-23T11:35:34;18.02;;;1.35;;
51838;SDS011;37886;53.174;6.368;2024-03-23T11:38:03;11.52;;;1.10;;
51838;SDS011;37886;53.174;6.368;2024-03-23T11:40:34;16.38;;;1.58;;
51838;SDS011;37886;53.174;6.368;2024-03-23T11:43:07;13.93;;;1.17;;
51838;SDS011;37886;53.174;6.368;2024-03-23T11:45:35;18.10;;;1.45;;
51838;SDS011;37886;53.174;6.368;2024-03-23T11:48:06;14.15;;;1.65;;
51838;SDS011;37886;53.174;6.368;2024-03-23T11:50:33;10.25;;;0.95;;
51838;SDS011;37886;53.174;6.368;2024-03-23T11:53:08;14.48;;;1.35;;
51838;SDS011;37886;53.174;6.368;2024-03-23T11:55:54;24.38;;;1.35;;
51838;SDS011;37886;53.174;6.368;2024-03-23T11:58:22;9.30;;;1.05;;
51838;SDS011;37886;53.174;6.368;2024-03-23T12:01:10;16.52;;;1.33;;
51838;SDS011;37886;53.174;6.368;2024-03-23T12:03:35;12.93;;;1.58;;
51838;SDS011;37886;53.174;6.368;2024-03-23T12:06:02;13.27;;;0.98;;
51838;SDS011;37886;53.174;6.368;2024-03-23T12:08:29;19.40;;;1.42;;
51838;SDS011;37886;53.174;6.368;2024-03-23T12:11:05;13.02;;;1.10;;
51838;SDS011;37886;53.174;6.368;2024-03-23T12:13:40;12.77;;;0.93;;
51838;SDS011;37886;53.174;6.368;2024-03-23T12:16:08;13.68;;;1.00;;
51838;SDS011;37886;53.174;6.368;2024-03-23T12:18:36;10.40;;;0.93;;
51838;SDS011;37886;53.174;6.368;2024-03-23T12:21:06;5.22;;;0.80;;
51838;SDS011;37886;53.174;6.368;2024-03-23T12:23:32;13.15;;;1.05;;
51838;SDS011;37886;53.174;6.368;2024-03-23T12:25:58;12.85;;;1.08;;
51838;SDS011;37886;53.174;6.368;2024-03-23T12:28:24;14.68;;;1.33;;
51838;SDS011;37886;53.174;6.368;2024-03-23T12:30:50;14.65;;;1.20;;
51838;SDS011;37886;53.174;6.368;2024-03-23T12:33:17;11.02;;;1.00;;
51838;SDS011;37886;53.174;6.368;2024-03-23T12:35:46;14.50;;;0.98;;
51838;SDS011;37886;53.174;6.368;2024-03-23T12:38:12;13.35;;;0.95;;
51838;SDS011;37886;53.174;6.368;2024-03-23T12:40:38;9.45;;;0.90;;
51838;SDS011;37886;53.174;6.368;2024-03-23T12:43:04;9.30;;;0.60;;
51838;SDS011;37886;53.174;6.368;2024-03-23T12:45:30;8.48;;;0.65;;
51838;SDS011;37886;53.174;6.368;2024-03-23T12:47:55;5.82;;;0.80;;
51838;SDS011;37886;53.174;6.368;2024-03-23T12:50:21;6.43;;;0.63;;
51838;SDS011;37886;53.174;6.368;2024-03-23T12:52:47;13.75;;;0.90;;
51838;SDS011;37886;53.174;6.368;2024-03-23T12:55:13;2.70;;;0.50;;
51838;SDS011;37886;53.174;6.368;2024-03-23T12:57:38;7.38;;;0.80;;
51838;SDS011;37886;53.174;6.368;2024-03-23T13:00:06;12.65;;;1.15;;
51838;SDS011;37886;53.174;6.368;2024-03-23T13:02:32;16.77;;;1.48;;
51838;SDS011;37886;53.174;6.368;2024-03-23T13:05:00;8.23;;;1.10;;
51838;SDS011;37886;53.174;6.368;2024-03-23T13:07:25;10.15;;;0.80;;
51838;SDS011;37886;53.174;6.368;2024-03-23T13:09:51;9.52;;;0.75;;
51838;SDS011;37886;53.174;6.368;2024-03-23T13:12:18;11.65;;;0.88;;
51838;SDS011;37886;53.174;6.368;2024-03-23T13:14:44;6.97;;;0.95;;
51838;SDS011;37886;53.174;6.368;2024-03-23T13:17:11;9.52;;;1.15;;
51838;SDS011;37886;53.174;6.368;2024-03-23T13:19:37;9.25;;;0.88;;
51838;SDS011;37886;53.174;6.368;2024-03-23T13:22:03;8.75;;;1.05;;
51838;SDS011;37886;53.174;6.368;2024-03-23T13:24:32;8.23;;;0.88;;
51838;SDS011;37886;53.174;6.368;2024-03-23T13:26:58;13.52;;;1.52;;
51838;SDS011;37886;53.174;6.368;2024-03-23T13:29:23;9.98;;;1.30;;
51838;SDS011;37886;53.174;6.368;2024-03-23T13:31:50;13.55;;;1.40;;
51838;SDS011;37886;53.174;6.368;2024-03-23T13:34:18;21.60;;;1.88;;
51838;SDS011;37886;53.174;6.368;2024-03-23T13:36:44;21.40;;;1.77;;
51838;SDS011;37886;53.174;6.368;2024-03-23T13:39:11;15.68;;;1.23;;
51838;SDS011;37886;53.174;6.368;2024-03-23T13:41:44;5.82;;;0.50;;
51838;SDS011;37886;53.174;6.368;2024-03-23T13:44:11;11.35;;;0.90;;
51838;SDS011;37886;53.174;6.368;2024-03-23T13:46:38;9.43;;;1.00;;
51838;SDS011;37886;53.174;6.368;2024-03-23T13:49:05;16.60;;;1.08;;
51838;SDS011;37886;53.174;6.368;2024-03-23T13:51:31;7.20;;;0.95;;
51838;SDS011;37886;53.174;6.368;2024-03-23T13:53:57;10.02;;;1.15;;
51838;SDS011;37886;53.174;6.368;2024-03-23T13:56:26;16.17;;;1.33;;
51838;SDS011;37886;53.174;6.368;2024-03-23T13:58:54;8.70;;;1.10;;
51838;SDS011;37886;53.174;6.368;2024-03-23T14:01:21;13.88;;;1.10;;
51838;SDS011;37886;53.174;6.368;2024-03-23T14:03:47;13.32;;;1.10;;
51838;SDS011;37886;53.174;6.368;2024-03-23T14:06:12;9.82;;;1.27;;
51838;SDS011;37886;53.174;6.368;2024-03-23T14:08:38;16.63;;;1.48;;
51838;SDS011;37886;53.174;6.368;2024-03-23T14:11:08;7.47;;;0.70;;
51838;SDS011;37886;53.174;6.368;2024-03-23T14:13:34;11.77;;;0.97;;
51838;SDS011;37886;53.174;6.368;2024-03-23T14:16:00;13.68;;;1.40;;
51838;SDS011;37886;53.174;6.368;2024-03-23T14:18:26;11.13;;;1.17;;
51838;SDS011;37886;53.174;6.368;2024-03-23T14:20:55;8.88;;;1.05;;
51838;SDS011;37886;53.174;6.368;2024-03-23T14:23:25;19.55;;;1.75;;
51838;SDS011;37886;53.174;6.368;2024-03-23T14:25:55;7.22;;;1.10;;
51838;SDS011;37886;53.174;6.368;2024-03-23T14:28:22;15.18;;;1.80;;
51838;SDS011;37886;53.174;6.368;2024-03-23T14:30:51;12.85;;;1.52;;
51838;SDS011;37886;53.174;6.368;2024-03-23T14:33:20;15.07;;;1.80;;
51838;SDS011;37886;53.174;6.368;2024-03-23T14:35:55;15.15;;;2.13;;
51838;SDS011;37886;53.174;6.368;2024-03-23T14:38:22;20.52;;;1.85;;
51838;SDS011;37886;53.174;6.368;2024-03-23T14:40:48;12.25;;;1.67;;
51838;SDS011;37886;53.174;6.368;2024-03-23T14:43:14;16.60;;;1.35;;
51838;SDS011;37886;53.174;6.368;2024-03-23T14:46:05;18.98;;;1.40;;
51838;SDS011;37886;53.174;6.368;2024-03-23T14:48:38;13.43;;;1.75;;
51838;SDS011;37886;53.174;6.368;2024-03-23T14:51:04;9.45;;;1.02;;
51838;SDS011;37886;53.174;6.368;2024-03-23T14:53:35;11.82;;;1.40;;
51838;SDS011;37886;53.174;6.368;2024-03-23T14:56:02;6.53;;;0.80;;
51838;SDS011;37886;53.174;6.368;2024-03-23T14:58:28;6.68;;;0.60;;
51838;SDS011;37886;53.174;6.368;2024-03-23T15:01:04;7.28;;;0.65;;
51838;SDS011;37886;53.174;6.368;2024-03-23T15:03:34;5.37;;;0.43;;
51838;SDS011;37886;53.174;6.368;2024-03-23T15:06:04;10.80;;;1.17;;
51838;SDS011;37886;53.174;6.368;2024-03-23T15:08:30;9.75;;;1.00;;
51838;SDS011;37886;53.174;6.368;2024-03-23T15:10:59;10.77;;;1.10;;
51838;SDS011;37886;53.174;6.368;2024-03-23T15:13:30;12.95;;;1.33;;
51838;SDS011;37886;53.174;6.368;2024-03-23T15:15:59;16.55;;;1.60;;
51838;SDS011;37886;53.174;6.368;2024-03-23T15:18:24;10.70;;;1.50;;
51838;SDS011;37886;53.174;6.368;2024-03-23T15:20:57;9.82;;;1.25;;
51838;SDS011;37886;53.174;6.368;2024-03-23T15:23:27;13.73;;;1.60;;
51838;SDS011;37886;53.174;6.368;2024-03-23T15:25:54;14.60;;;1.63;;
51838;SDS011;37886;53.174;6.368;2024-03-23T15:28:26;11.40;;;1.23;;
51838;SDS011;37886;53.174;6.368;2024-03-23T15:31:03;11.20;;;1.30;;
51838;SDS011;37886;53.174;6.368;2024-03-23T15:33:29;11.50;;;1.40;;
51838;SDS011;37886;53.174;6.368;2024-03-23T15:35:58;13.68;;;1.50;;
51838;SDS011;37886;53.174;6.368;2024-03-23T15:38:24;14.38;;;1.83;;
51838;SDS011;37886;53.174;6.368;2024-03-23T15:40:50;12.80;;;1.80;;